Time;durP1;ratioP1;P1;durP2;ratioP2;P2;SDS_P1;SDS_P2;PMS_P1;PMS_P2;Temp;Humidity;BMP_temperature;BMP_pressure;BME280_temperature;BME280_humidity;BME280_pressure;Samples;Min_cycle;Max_cycle;Signal;HPM_P1;HPM_P2
2022/09/28 00:02:03;;;;;;;8.57;4.60;;;8.90;99.90;;;;;;6117879;23;20010;-84
2022/09/28 00:04:29;;;;;;;7.50;4.53;;;8.90;99.90;;;;;;6117642;23;20006;-84
2022/09/28 00:06:59;;;;;;;6.97;4.30;;;8.90;99.90;;;;;;6116754;23;20428;-84
2022/09/28 00:09:25;;;;;;;7.82;4.45;;;9.00;99.90;;;;;;6117950;23;20006;-84
2022/09/28 00:11:51;;;;;;;7.07;4.00;;;8.90;99.90;;;;;;6117332;23;20476;-84
2022/09/28 00:14:17;;;;;;;8.27;4.72;;;9.00;99.90;;;;;;6117241;23;20006;-84
2022/09/28 00:16:44;;;;;;;4.35;3.60;;;9.00;99.90;;;;;;6117791;23;20033;-84
2022/09/28 00:19:10;;;;;;;13.68;4.72;;;8.90;99.90;;;;;;6119309;23;20089;-81
2022/09/28 00:21:38;;;;;;;4.53;4.03;;;8.90;99.90;;;;;;6116532;23;20010;-83
2022/09/28 00:24:11;;;;;;;5.32;3.80;;;8.90;99.90;;;;;;6118693;23;20014;-83
2022/09/28 00:27:02;;;;;;;3.72;3.28;;;8.90;99.90;;;;;;6118172;23;20006;-83
2022/09/28 00:29:30;;;;;;;9.60;3.75;;;8.90;99.90;;;;;;6107984;23;20077;-85
2022/09/28 00:32:15;;;;;;;6.03;3.97;;;8.90;99.90;;;;;;6118340;23;20304;-84
2022/09/28 00:34:44;;;;;;;4.90;4.25;;;8.90;99.90;;;;;;6118898;23;20641;-84
2022/09/28 00:37:12;;;;;;;6.20;3.63;;;8.90;99.90;;;;;;6119202;23;20002;-84
2022/09/28 00:39:40;;;;;;;7.57;4.60;;;8.90;99.90;;;;;;6118833;23;20040;-81
2022/09/28 00:42:31;;;;;;;6.38;4.18;;;8.90;99.90;;;;;;6117845;23;19998;-84
2022/09/28 00:44:58;;;;;;;6.45;4.43;;;8.90;99.90;;;;;;6113734;23;20435;-84
2022/09/28 00:47:39;;;;;;;6.47;3.75;;;8.90;99.90;;;;;;6118925;23;20009;-84
2022/09/28 00:50:27;;;;;;;7.43;3.88;;;8.90;99.90;;;;;;6118401;23;20371;-82
2022/09/28 00:53:17;;;;;;;14.40;4.85;;;8.90;99.90;;;;;;6119082;23;20013;-81
2022/09/28 00:55:50;;;;;;;7.20;3.72;;;8.90;99.90;;;;;;6117746;23;20006;-83
2022/09/28 00:58:30;;;;;;;6.80;3.13;;;8.90;99.90;;;;;;6119477;23;20009;-85
2022/09/28 01:00:57;;;;;;;6.30;3.70;;;8.80;99.90;;;;;;6117453;23;20014;-84
2022/09/28 01:03:25;;;;;;;7.68;3.88;;;8.80;99.90;;;;;;6119435;23;20009;-83
2022/09/28 01:05:52;;;;;;;3.78;2.67;;;8.80;99.90;;;;;;6117518;23;20013;-84
2022/09/28 01:08:20;;;;;;;7.47;4.07;;;8.70;99.90;;;;;;6118268;23;20014;-83
2022/09/28 01:10:47;;;;;;;6.30;3.30;;;8.70;99.90;;;;;;6117630;23;20005;-84
2022/09/28 01:13:16;;;;;;;5.22;3.15;;;8.70;99.90;;;;;;6118510;23;20060;-84
2022/09/28 01:16:02;;;;;;;4.90;3.53;;;8.70;99.90;;;;;;6117354;23;20442;-84
2022/09/28 01:18:43;;;;;;;2.97;2.70;;;8.60;99.90;;;;;;6118194;23;20401;-84
2022/09/28 01:21:17;;;;;;;4.97;3.67;;;8.60;99.90;;;;;;6117077;23;20017;-85
2022/09/28 01:24:09;;;;;;;6.28;3.75;;;8.60;99.90;;;;;;6118269;23;20006;-84
2022/09/28 01:26:45;;;;;;;3.97;3.47;;;8.60;99.90;;;;;;6116405;23;20006;-85
2022/09/28 01:29:33;;;;;;;8.52;3.72;;;8.50;99.90;;;;;;6118108;23;20017;-83
2022/09/28 01:32:13;;;;;;;4.78;2.78;;;8.50;99.90;;;;;;6117316;23;20088;-83
2022/09/28 01:34:45;;;;;;;10.05;4.15;;;8.50;99.90;;;;;;6116959;23;20013;-83
2022/09/28 01:37:15;;;;;;;9.82;3.72;;;8.50;99.90;;;;;;6117460;23;20006;-84
2022/09/28 01:39:45;;;;;;;8.25;3.28;;;8.60;99.90;;;;;;6118563;23;20299;-83
2022/09/28 01:42:19;;;;;;;4.68;2.88;;;8.60;99.90;;;;;;6117815;23;20002;-84
2022/09/28 01:44:47;;;;;;;7.45;3.72;;;8.60;99.90;;;;;;6117897;23;20471;-84
2022/09/28 01:47:15;;;;;;;3.42;3.10;;;8.60;99.90;;;;;;6117547;23;20006;-85
2022/09/28 01:50:00;;;;;;;5.53;2.67;;;8.70;99.90;;;;;;6118884;23;20038;-83
2022/09/28 01:52:34;;;;;;;7.65;3.20;;;8.70;99.90;;;;;;6118028;23;20506;-85
2022/09/28 01:55:16;;;;;;;3.30;2.55;;;8.70;99.90;;;;;;6118431;23;20017;-83
2022/09/28 01:57:43;;;;;;;6.68;2.95;;;8.70;99.90;;;;;;6115096;23;20010;-85
2022/09/28 02:00:12;;;;;;;4.40;3.00;;;8.60;99.90;;;;;;6116886;23;20077;-84
2022/09/28 02:02:54;;;;;;;4.05;2.58;;;8.60;99.90;;;;;;6117171;23;20009;-83
2022/09/28 02:05:27;;;;;;;8.68;3.88;;;8.60;99.90;;;;;;6117771;23;20009;-84
2022/09/28 02:08:16;;;;;;;5.68;2.50;;;8.50;99.90;;;;;;6118885;23;20006;-84
2022/09/28 02:10:48;;;;;;;3.80;2.50;;;8.50;99.90;;;;;;6103691;23;20041;-84
2022/09/28 02:13:20;;;;;;;5.63;3.00;;;8.40;99.90;;;;;;6118432;23;20022;-84
2022/09/28 02:15:57;;;;;;;6.78;2.75;;;8.40;99.90;;;;;;6117204;23;20010;-84
2022/09/28 02:18:23;;;;;;;4.03;2.10;;;8.40;99.90;;;;;;6118533;22;20057;-85
2022/09/28 02:20:59;;;;;;;4.95;2.67;;;8.40;99.90;;;;;;6117697;23;20017;-83
2022/09/28 02:23:29;;;;;;;3.40;2.10;;;8.40;99.90;;;;;;6117762;23;20083;-84
2022/09/28 02:26:01;;;;;;;2.55;2.35;;;8.50;99.90;;;;;;6117653;23;20002;-84
2022/09/28 02:28:26;;;;;;;3.75;2.28;;;8.40;99.90;;;;;;6118387;23;20025;-83
2022/09/28 02:30:52;;;;;;;4.53;2.63;;;8.40;99.90;;;;;;6117150;23;20029;-83
2022/09/28 02:33:27;;;;;;;4.13;2.83;;;8.40;99.90;;;;;;6118296;23;20007;-84
2022/09/28 02:35:52;;;;;;;6.63;3.33;;;8.50;99.90;;;;;;6117571;23;20049;-85
2022/09/28 02:38:18;;;;;;;6.13;3.10;;;8.40;99.90;;;;;;6118371;23;20006;-84
2022/09/28 02:41:03;;;;;;;6.95;3.42;;;8.40;99.90;;;;;;6116183;23;20014;-84
2022/09/28 02:44:16;;;;;;;16.77;5.32;;;8.50;99.90;;;;;;6117973;23;20002;-85
2022/09/28 02:46:50;;;;;;;8.30;4.35;;;8.50;99.90;;;;;;6049109;23;20016;-84
2022/09/28 02:49:16;;;;;;;7.50;3.75;;;8.50;99.90;;;;;;6118352;23;20010;-84
2022/09/28 02:52:14;;;;;;;5.88;4.18;;;8.50;99.90;;;;;;6114525;23;20493;-85
2022/09/28 02:54:48;;;;;;;8.40;4.53;;;8.50;99.90;;;;;;6117874;23;20059;-84
2022/09/28 02:57:35;;;;;;;9.77;4.93;;;8.50;99.90;;;;;;6117177;23;20017;-84
2022/09/28 03:00:10;;;;;;;7.40;3.88;;;8.50;99.90;;;;;;6118126;23;20101;-83
2022/09/28 03:02:36;;;;;;;;;;;8.50;99.90;;;;;;6118319;23;20005;-84
2022/09/28 03:05:06;;;;;;;11.48;5.65;;;8.50;99.90;;;;;;6117978;23;20322;-84
2022/09/28 03:07:37;;;;;;;8.77;4.70;;;8.50;99.90;;;;;;6116967;23;20427;-82
2022/09/28 03:10:23;;;;;;;8.27;4.90;;;8.50;99.90;;;;;;6117309;23;20140;-84
2022/09/28 03:12:51;;;;;;;6.45;5.32;;;8.50;99.90;;;;;;6116780;23;20059;-84
2022/09/28 03:15:24;;;;;;;12.40;6.70;;;8.50;99.90;;;;;;6116675;23;20002;-81
2022/09/28 03:17:50;;;;;;;8.98;6.00;;;8.50;99.90;;;;;;6118505;22;20025;-84
2022/09/28 03:20:16;;;;;;;12.27;6.60;;;8.50;99.90;;;;;;6117597;23;20044;-84
2022/09/28 03:22:42;;;;;;;8.45;6.30;;;8.50;99.90;;;;;;6115824;23;20424;-84
2022/09/28 03:25:07;;;;;;;13.50;7.07;;;8.40;99.90;;;;;;6117291;23;20009;-83
2022/09/28 03:27:33;;;;;;;9.32;5.45;;;8.40;99.90;;;;;;6117557;23;20324;-84
2022/09/28 03:30:02;;;;;;;11.68;7.32;;;8.40;99.90;;;;;;6118057;23;19998;-84
2022/09/28 03:32:28;;;;;;;9.93;6.38;;;8.40;99.90;;;;;;6116276;23;19998;-83
2022/09/28 03:34:53;;;;;;;9.35;5.90;;;8.40;99.90;;;;;;6117724;23;20164;-83
2022/09/28 03:37:19;;;;;;;9.90;6.00;;;8.40;99.90;;;;;;6115563;23;20002;-84
2022/09/28 03:39:45;;;;;;;8.50;6.43;;;8.40;99.90;;;;;;6117137;23;20013;-83
2022/09/28 03:42:10;;;;;;;12.73;5.85;;;8.40;99.90;;;;;;6115738;23;20014;-84
2022/09/28 03:44:36;;;;;;;10.73;5.93;;;8.40;99.90;;;;;;6116693;23;19998;-84
2022/09/28 03:47:02;;;;;;;7.03;5.30;;;8.40;99.90;;;;;;6115289;23;20006;-83
2022/09/28 03:49:27;;;;;;;14.35;5.78;;;8.40;99.90;;;;;;6115867;23;20017;-85
2022/09/28 03:51:53;;;;;;;6.70;4.90;;;8.40;99.90;;;;;;6118111;23;19998;-81
2022/09/28 03:54:18;;;;;;;4.97;4.47;;;8.40;99.90;;;;;;6118698;23;20029;-83
2022/09/28 03:56:44;;;;;;;11.13;4.97;;;8.40;99.90;;;;;;6116751;23;20010;-83
2022/09/28 03:59:10;;;;;;;5.22;4.40;;;8.50;99.90;;;;;;6117181;23;20002;-81
2022/09/28 04:01:35;;;;;;;6.18;4.65;;;8.40;99.90;;;;;;6117511;23;20018;-83
2022/09/28 04:04:11;;;;;;;7.57;3.97;;;8.40;99.90;;;;;;6119023;23;20002;-85
2022/09/28 04:06:36;;;;;;;7.05;4.10;;;8.40;99.90;;;;;;6118026;23;20009;-83
2022/09/28 04:09:02;;;;;;;5.35;4.47;;;8.40;99.90;;;;;;6118989;23;20324;-85
2022/09/28 04:11:27;;;;;;;8.40;4.43;;;8.40;99.90;;;;;;6116270;23;19998;-85
2022/09/28 04:13:53;;;;;;;8.45;4.93;;;8.40;99.90;;;;;;6116837;23;20040;-85
2022/09/28 04:16:19;;;;;;;13.10;4.38;;;8.40;99.90;;;;;;6117026;23;20040;-85
2022/09/28 04:18:45;;;;;;;8.80;4.88;;;8.40;99.90;;;;;;6119208;23;20025;-83
2022/09/28 04:21:14;;;;;;;5.60;4.10;;;8.40;99.90;;;;;;6117729;23;20037;-83
2022/09/28 04:23:40;;;;;;;10.20;5.07;;;8.40;99.90;;;;;;6117958;23;20032;-84
2022/09/28 04:26:15;;;;;;;7.28;4.28;;;8.40;99.90;;;;;;6115495;23;20002;-83
2022/09/28 04:31:27;;;;;;;7.35;5.07;;;8.30;99.90;;;;;;6117057;23;20014;-83
2022/09/28 04:33:52;;;;;;;11.35;5.03;;;8.40;99.90;;;;;;6116878;23;20037;-86
2022/09/28 04:36:18;;;;;;;9.38;5.43;;;8.30;99.90;;;;;;6117007;23;19998;-85
2022/09/28 04:38:44;;;;;;;7.05;4.75;;;8.30;99.90;;;;;;6116352;23;20340;-84
2022/09/28 04:41:11;;;;;;;9.23;5.30;;;8.30;99.90;;;;;;6112628;23;20098;-87
2022/09/28 04:43:36;;;;;;;7.75;5.18;;;8.30;99.90;;;;;;6114910;23;20033;-84
2022/09/28 04:46:09;;;;;;;9.20;5.57;;;8.30;99.90;;;;;;6114398;23;20009;-84
2022/09/28 04:48:36;;;;;;;13.35;5.45;;;8.30;99.90;;;;;;6117565;23;20020;-85
2022/09/28 04:51:03;;;;;;;6.78;5.78;;;8.30;99.90;;;;;;6114572;23;20002;-81
2022/09/28 04:53:29;;;;;;;8.48;6.05;;;8.30;99.90;;;;;;6118285;23;20089;-85
2022/09/28 04:56:03;;;;;;;7.22;5.30;;;8.30;99.90;;;;;;6117184;23;20029;-85
2022/09/28 04:58:30;;;;;;;8.32;5.60;;;8.30;99.90;;;;;;6117263;23;20010;-85
2022/09/28 05:01:08;;;;;;;7.93;5.30;;;8.30;99.90;;;;;;6117436;23;20410;-85
2022/09/28 05:03:34;;;;;;;10.82;5.90;;;8.30;99.90;;;;;;6118978;23;20143;-85
2022/09/28 05:06:00;;;;;;;9.43;5.57;;;8.30;99.90;;;;;;6117524;23;20009;-85
2022/09/28 05:08:26;;;;;;;16.98;5.80;;;8.30;99.90;;;;;;6113491;23;21004;-85
2022/09/28 05:11:06;;;;;;;7.65;5.15;;;8.30;99.90;;;;;;6115865;23;20002;-84
2022/09/28 05:13:34;;;;;;;8.45;5.43;;;8.30;99.90;;;;;;6118710;23;20013;-84
2022/09/28 05:16:02;;;;;;;5.88;4.55;;;8.20;99.90;;;;;;6117580;23;20016;-85
2022/09/28 05:18:28;;;;;;;6.80;4.80;;;8.30;99.90;;;;;;6118991;23;20018;-84
2022/09/28 05:20:54;;;;;;;6.85;4.53;;;8.30;99.90;;;;;;6116258;23;20010;-84
2022/09/28 05:23:19;;;;;;;6.68;5.18;;;8.30;99.90;;;;;;6118587;23;20002;-84
2022/09/28 05:25:45;;;;;;;8.32;5.85;;;8.30;99.90;;;;;;6116865;23;20033;-84
2022/09/28 05:28:11;;;;;;;6.68;4.68;;;8.30;99.90;;;;;;6118541;23;20002;-83
2022/09/28 05:30:37;;;;;;;7.10;5.13;;;8.20;99.90;;;;;;6117948;23;20009;-83
2022/09/28 05:33:03;;;;;;;5.80;4.93;;;8.20;99.90;;;;;;6117186;23;20006;-84
2022/09/28 05:35:29;;;;;;;10.43;4.93;;;8.30;99.90;;;;;;6118045;23;20086;-84
2022/09/28 05:37:55;;;;;;;5.47;4.57;;;8.30;99.90;;;;;;6115451;23;20380;-84
2022/09/28 05:40:21;;;;;;;7.07;4.88;;;8.20;99.90;;;;;;6118772;23;20021;-83
2022/09/28 05:42:47;;;;;;;6.57;4.78;;;8.20;99.90;;;;;;6118050;23;20009;-84
2022/09/28 05:45:13;;;;;;;8.45;4.78;;;8.20;99.90;;;;;;6117980;23;20002;-83
2022/09/28 05:47:40;;;;;;;6.22;4.70;;;8.20;99.90;;;;;;6218488;23;20013;-83
2022/09/28 05:50:14;;;;;;;10.70;4.97;;;8.20;99.90;;;;;;6118057;23;20009;-83
2022/09/28 05:52:40;;;;;;;6.53;4.00;;;8.10;99.90;;;;;;6117614;23;20016;-83
2022/09/28 05:55:09;;;;;;;6.53;3.17;;;8.10;99.90;;;;;;6118788;23;20084;-82
2022/09/28 05:57:35;;;;;;;8.35;3.22;;;8.10;99.90;;;;;;6118294;23;19998;-83
2022/09/28 06:00:07;;;;;;;3.67;2.80;;;8.10;99.90;;;;;;6118228;23;20357;-84
2022/09/28 06:02:33;;;;;;;4.80;2.42;;;8.10;99.90;;;;;;6118044;23;20009;-83
2022/09/28 06:05:02;;;;;;;7.97;2.90;;;8.00;99.90;;;;;;6118268;23;20006;-83
2022/09/28 06:07:28;;;;;;;5.15;3.00;;;8.00;99.90;;;;;;6117553;23;20371;-83
2022/09/28 06:09:53;;;;;;;2.70;2.30;;;8.10;99.90;;;;;;6118198;23;20006;-83
2022/09/28 06:12:19;;;;;;;4.28;2.80;;;8.00;99.90;;;;;;6116038;23;20005;-84
2022/09/28 06:14:45;;;;;;;2.67;2.08;;;8.00;99.90;;;;;;6118288;23;20002;-83
2022/09/28 06:17:11;;;;;;;3.78;2.28;;;8.00;99.90;;;;;;6116588;23;20474;-84
2022/09/28 06:19:36;;;;;;;2.65;2.03;;;8.00;99.90;;;;;;6219965;23;20018;-84
2022/09/28 06:22:02;;;;;;;2.65;1.90;;;8.00;99.90;;;;;;6116536;23;20020;-84
2022/09/28 06:24:27;;;;;;;3.10;1.77;;;8.00;99.90;;;;;;6118472;23;20501;-83
2022/09/28 06:26:53;;;;;;;2.33;2.05;;;8.00;99.90;;;;;;6117040;23;20005;-83
2022/09/28 06:29:18;;;;;;;4.97;1.70;;;8.10;99.90;;;;;;6117902;23;20006;-83
2022/09/28 06:31:46;;;;;;;2.50;1.92;;;8.00;99.90;;;;;;6117403;23;20370;-84
2022/09/28 06:34:11;;;;;;;1.25;1.15;;;8.00;99.90;;;;;;6117076;23;20002;-83
2022/09/28 06:36:38;;;;;;;1.50;1.40;;;8.00;99.90;;;;;;6116935;23;20499;-84
2022/09/28 06:39:04;;;;;;;3.20;1.60;;;8.00;99.90;;;;;;6118064;23;20009;-84
2022/09/28 06:41:29;;;;;;;2.17;1.98;;;8.00;99.90;;;;;;6116554;23;20432;-84
2022/09/28 06:43:55;;;;;;;5.72;2.30;;;8.10;99.90;;;;;;6118320;23;20052;-84
2022/09/28 06:46:21;;;;;;;2.13;1.85;;;8.10;99.90;;;;;;6117337;23;20026;-84
2022/09/28 06:48:48;;;;;;;3.25;1.98;;;8.10;99.90;;;;;;6118587;23;20033;-84
2022/09/28 06:51:14;;;;;;;2.35;2.15;;;8.10;99.90;;;;;;6116862;23;20371;-85
2022/09/28 06:53:40;;;;;;;1.77;1.67;;;8.10;99.90;;;;;;6116909;23;20017;-85
2022/09/28 06:56:08;;;;;;;1.70;1.60;;;8.10;99.90;;;;;;6115109;23;20089;-84
2022/09/28 06:58:34;;;;;;;1.70;1.60;;;8.10;99.90;;;;;;6117841;23;20347;-85
2022/09/28 07:01:04;;;;;;;2.78;2.33;;;8.10;99.90;;;;;;6116642;23;20097;-84
2022/09/28 07:03:30;;;;;;;2.50;2.25;;;8.10;99.90;;;;;;6117295;23;20040;-85
2022/09/28 07:05:56;;;;;;;3.20;2.25;;;8.20;99.90;;;;;;6117788;23;20002;-85
2022/09/28 07:08:25;;;;;;;2.08;1.92;;;8.20;99.90;;;;;;6116000;23;20013;-84
2022/09/28 07:10:55;;;;;;;4.97;2.47;;;8.20;99.90;;;;;;6117671;23;20002;-85
2022/09/28 07:13:27;;;;;;;3.42;2.65;;;8.20;99.90;;;;;;6217835;23;20006;-84
2022/09/28 07:15:54;;;;;;;2.67;2.30;;;8.20;99.90;;;;;;6117709;23;20336;-84
2022/09/28 07:18:20;;;;;;;5.15;2.13;;;8.20;99.90;;;;;;6117448;23;20022;-84
2022/09/28 07:20:46;;;;;;;2.20;2.00;;;8.20;99.90;;;;;;6116873;23;20025;-84
2022/09/28 07:23:11;;;;;;;3.85;2.20;;;8.30;99.90;;;;;;6117021;23;20013;-84
2022/09/28 07:25:39;;;;;;;2.75;2.55;;;8.30;99.90;;;;;;6118706;23;20052;-83
2022/09/28 07:28:05;;;;;;;3.03;2.78;;;8.30;99.90;;;;;;6117781;23;20029;-84
2022/09/28 07:30:33;;;;;;;5.18;3.30;;;8.30;99.90;;;;;;6118329;23;19998;-84
2022/09/28 07:33:00;;;;;;;9.50;4.25;;;8.30;99.90;;;;;;6116784;23;20002;-83
2022/09/28 07:35:25;;;;;;;4.90;3.42;;;8.30;99.90;;;;;;6116308;23;20420;-83
2022/09/28 07:38:02;;;;;;;4.65;3.70;;;8.30;99.90;;;;;;6116885;23;20013;-83
2022/09/28 07:43:15;;;;;;;5.70;4.65;;;8.30;99.90;;;;;;6116217;23;20017;-83
2022/09/28 07:45:42;;;;;;;4.32;3.67;;;8.40;99.90;;;;;;6117205;23;20443;-84
2022/09/28 07:48:08;;;;;;;10.93;4.57;;;8.30;99.90;;;;;;6116239;23;20059;-82
2022/09/28 07:50:33;;;;;;;5.43;3.47;;;8.40;99.90;;;;;;6117392;23;20013;-82
2022/09/28 07:53:05;;;;;;;6.70;3.65;;;8.30;99.90;;;;;;6116080;23;20006;-83
2022/09/28 07:55:30;;;;;;;5.15;4.28;;;8.40;99.90;;;;;;6118227;23;20013;-83
2022/09/28 07:58:00;;;;;;;6.20;3.97;;;8.40;99.90;;;;;;6116202;23;19998;-83
2022/09/28 08:00:30;;;;;;;7.28;4.22;;;8.40;99.90;;;;;;6117294;23;20013;-83
2022/09/28 08:02:58;;;;;;;5.88;3.97;;;8.40;99.90;;;;;;6116504;23;20002;-84
2022/09/28 08:05:24;;;;;;;5.68;4.45;;;8.40;99.90;;;;;;6117041;23;20064;-84
2022/09/28 08:07:51;;;;;;;7.30;5.22;;;8.40;99.90;;;;;;6117429;23;20010;-83
2022/09/28 08:10:18;;;;;;;5.30;4.00;;;8.40;99.90;;;;;;6117125;23;20013;-84
2022/09/28 08:12:46;;;;;;;5.18;4.18;;;8.40;99.90;;;;;;6116710;23;20013;-84
2022/09/28 08:15:14;;;;;;;5.57;4.00;;;8.40;99.90;;;;;;6117604;23;20497;-84
2022/09/28 08:17:45;;;;;;;8.57;6.00;;;8.40;99.90;;;;;;6116283;23;20033;-84
2022/09/28 08:23:08;;;;;;;9.38;6.32;;;8.40;99.90;;;;;;6115598;23;20013;-84
2022/09/28 08:25:37;;;;;;;7.93;5.45;;;8.50;99.90;;;;;;6117483;23;20006;-84
2022/09/28 08:28:08;;;;;;;6.10;4.53;;;8.50;99.90;;;;;;6117386;23;19999;-84
2022/09/28 08:30:34;;;;;;;3.72;3.42;;;8.50;99.90;;;;;;6116923;23;20013;-84
2022/09/28 08:32:59;;;;;;;7.00;3.72;;;8.50;99.90;;;;;;6116222;23;19998;-84
2022/09/28 08:35:25;;;;;;;6.15;3.25;;;8.50;99.90;;;;;;6117772;23;20328;-84
2022/09/28 08:37:53;;;;;;;6.07;2.83;;;8.50;99.90;;;;;;6118250;23;20002;-83
2022/09/28 08:40:24;;;;;;;4.18;3.30;;;8.60;99.90;;;;;;6117576;23;20063;-84
2022/09/28 08:43:01;;;;;;;12.80;5.65;;;8.60;99.90;;;;;;6118043;23;20065;-84
2022/09/28 08:45:29;;;;;;;6.57;5.25;;;8.60;99.90;;;;;;6117877;23;20006;-84
2022/09/28 08:51:05;;;;;;;3.83;3.30;;;8.60;99.90;;;;;;6119080;23;20072;-84
2022/09/28 08:53:48;;;;;;;6.25;3.40;;;8.60;99.90;;;;;;6118100;23;20443;-84
2022/09/28 08:56:34;;;;;;;3.17;2.63;;;8.70;99.90;;;;;;6118022;23;20020;-84
2022/09/28 08:59:04;;;;;;;;;;;8.60;99.90;;;;;;6119055;23;20013;-84
2022/09/28 09:01:37;;;;;;;3.70;2.60;;;8.60;99.90;;;;;;6117444;23;19912;-83
2022/09/28 09:04:05;;;;;;;7.15;3.08;;;8.60;99.90;;;;;;6118726;23;20339;-84
2022/09/28 09:06:53;;;;;;;12.30;5.25;;;8.60;99.90;;;;;;6117036;23;20002;-83
2022/09/28 09:09:19;;;;;;;5.75;3.75;;;8.60;99.90;;;;;;6115771;23;20395;-84
2022/09/28 09:11:50;;;;;;;4.50;3.58;;;8.60;99.90;;;;;;6117318;23;20021;-84
2022/09/28 09:14:45;;;;;;;3.75;2.85;;;8.60;99.90;;;;;;6118162;23;20515;-84
2022/09/28 09:17:27;;;;;;;4.22;2.90;;;8.70;99.90;;;;;;6116766;22;20021;-83
2022/09/28 09:20:11;;;;;;;4.07;3.40;;;8.70;99.90;;;;;;6115585;23;20729;-84
2022/09/28 09:22:54;;;;;;;5.30;3.25;;;8.70;99.90;;;;;;6114932;23;20006;-85
2022/09/28 09:25:27;;;;;;;3.55;2.97;;;8.70;99.90;;;;;;6113393;23;20016;-84
2022/09/28 09:28:00;;;;;;;2.90;1.98;;;8.70;99.90;;;;;;6114867;23;20005;-84
2022/09/28 09:30:33;;;;;;;3.15;2.50;;;8.70;99.90;;;;;;6118073;23;20009;-84
2022/09/28 09:33:47;;;;;;;4.47;2.90;;;8.70;99.90;;;;;;6117593;23;20048;-84
2022/09/28 09:36:33;;;;;;;2.35;2.15;;;8.80;99.90;;;;;;6038581;23;20003;-84
2022/09/28 09:39:19;;;;;;;2.17;1.90;;;8.80;99.90;;;;;;6116909;23;20097;-84
2022/09/28 09:42:08;;;;;;;2.92;2.70;;;8.80;99.90;;;;;;6116784;23;20021;-84
2022/09/28 09:45:02;;;;;;;4.43;4.00;;;8.80;99.90;;;;;;6119128;23;20363;-84
2022/09/28 09:47:36;;;;;;;4.50;3.97;;;8.90;99.90;;;;;;6116470;23;20061;-84
2022/09/28 09:50:29;;;;;;;5.57;4.00;;;8.90;99.90;;;;;;6117798;23;20002;-85
2022/09/28 09:53:11;;;;;;;5.65;4.60;;;9.00;99.90;;;;;;6116439;23;20002;-84
2022/09/28 09:55:42;;;;;;;9.23;4.15;;;9.00;99.90;;;;;;6118615;23;20370;-84
2022/09/28 09:58:30;;;;;;;3.58;2.40;;;9.10;99.90;;;;;;6116882;23;20006;-84
2022/09/28 10:01:03;;;;;;;2.60;1.67;;;9.10;99.90;;;;;;6117536;23;20014;-84
2022/09/28 10:03:33;;;;;;;1.98;1.42;;;9.10;99.90;;;;;;6117311;23;20003;-84
2022/09/28 10:06:21;;;;;;;1.00;1.00;;;9.10;99.90;;;;;;6117261;23;20497;-84
2022/09/28 10:09:04;;;;;;;2.38;1.20;;;9.10;99.90;;;;;;6116934;23;20069;-84
2022/09/28 10:11:37;;;;;;;2.88;1.67;;;9.10;99.90;;;;;;6118221;23;20403;-83
2022/09/28 10:14:04;;;;;;;1.95;1.85;;;9.20;99.90;;;;;;6117557;23;20407;-84
2022/09/28 10:16:31;;;;;;;3.45;1.83;;;9.20;99.90;;;;;;6118009;22;20048;-84
2022/09/28 10:18:58;;;;;;;2.13;1.75;;;9.20;99.90;;;;;;6118000;23;20014;-84
2022/09/28 10:21:28;;;;;;;4.35;2.17;;;9.20;99.90;;;;;;6118578;23;20335;-83
2022/09/28 10:23:57;;;;;;;2.50;2.30;;;9.20;99.90;;;;;;6115890;23;20006;-83
2022/09/28 10:26:37;;;;;;;2.75;2.00;;;9.20;99.90;;;;;;6117328;23;19998;-84
2022/09/28 10:29:16;;;;;;;2.40;2.20;;;9.30;99.90;;;;;;6116695;23;20002;-84
2022/09/28 10:31:50;;;;;;;2.40;2.20;;;9.20;99.90;;;;;;6118540;23;19998;-84
2022/09/28 10:34:23;;;;;;;2.17;2.00;;;9.30;99.90;;;;;;6116306;23;20017;-83
2022/09/28 10:36:58;;;;;;;3.03;2.30;;;9.20;99.90;;;;;;6116708;23;20135;-83
2022/09/28 10:39:30;;;;;;;4.50;2.17;;;9.20;99.90;;;;;;6116656;23;20016;-84
2022/09/28 10:41:58;;;;;;;10.07;1.88;;;9.20;99.90;;;;;;6113280;23;20391;-83
2022/09/28 10:44:24;;;;;;;5.07;2.42;;;9.10;99.90;;;;;;6114409;23;20014;-83
2022/09/28 10:47:00;;;;;;;4.30;1.70;;;9.10;99.90;;;;;;6115930;23;20001;-83
2022/09/28 10:49:27;;;;;;;3.17;2.38;;;9.00;99.90;;;;;;6117641;23;20435;-84
2022/09/28 10:51:55;;;;;;;2.03;1.80;;;8.90;99.90;;;;;;6115974;23;20425;-84
2022/09/28 10:54:28;;;;;;;4.90;2.55;;;8.90;99.90;;;;;;6118692;23;20021;-85
2022/09/28 10:56:56;;;;;;;6.10;2.40;;;9.00;99.90;;;;;;6115358;23;20017;-85
2022/09/28 10:59:27;;;;;;;3.60;2.53;;;9.00;99.90;;;;;;6117424;23;20002;-84
2022/09/28 11:02:20;;;;;;;4.10;2.55;;;9.00;99.90;;;;;;6117952;23;20025;-84
2022/09/28 11:04:56;;;;;;;5.22;2.90;;;9.10;99.90;;;;;;6116676;23;20006;-86
2022/09/28 11:07:23;;;;;;;;;;;9.10;99.90;;;;;;6116761;23;20081;-85
2022/09/28 11:09:50;;;;;;;3.10;2.67;;;9.20;99.90;;;;;;6117849;23;19985;-84
2022/09/28 11:12:19;;;;;;;3.63;2.50;;;9.10;99.90;;;;;;6114859;23;20017;-85
2022/09/28 11:14:47;;;;;;;3.40;2.55;;;9.20;99.90;;;;;;6118055;23;20026;-85
2022/09/28 11:17:40;;;;;;;6.97;3.63;;;9.10;99.90;;;;;;6116803;23;20064;-84
2022/09/28 11:20:24;;;;;;;5.53;2.85;;;9.10;99.90;;;;;;6116919;23;20010;-84
2022/09/28 11:22:55;;;;;;;3.63;2.65;;;9.20;99.90;;;;;;6117181;23;20010;-85
2022/09/28 11:25:24;;;;;;;3.67;3.00;;;9.20;99.90;;;;;;6116207;23;20006;-84
2022/09/28 11:27:50;;;;;;;2.78;2.47;;;9.10;99.90;;;;;;6116287;23;20010;-84
2022/09/28 11:30:23;;;;;;;2.97;2.58;;;9.10;99.90;;;;;;6116158;23;20024;-84
2022/09/28 11:32:50;;;;;;;5.25;3.20;;;9.10;99.90;;;;;;6115257;23;20002;-84
2022/09/28 11:35:26;;;;;;;2.63;2.42;;;9.20;99.90;;;;;;6116684;23;20041;-84
2022/09/28 11:38:12;;;;;;;3.80;2.75;;;9.10;99.90;;;;;;6116557;23;20006;-83
2022/09/28 11:41:01;;;;;;;3.53;2.70;;;9.10;99.90;;;;;;6118228;23;20020;-84
2022/09/28 11:43:30;;;;;;;3.28;2.92;;;9.20;99.90;;;;;;6116725;23;20002;-84
2022/09/28 11:45:58;;;;;;;4.88;3.17;;;9.20;99.90;;;;;;6117117;23;20446;-85
2022/09/28 11:48:38;;;;;;;7.70;3.00;;;9.20;99.90;;;;;;6113977;23;20014;-84
2022/09/28 11:51:14;;;;;;;3.22;2.95;;;9.10;99.90;;;;;;6116504;23;20432;-84
2022/09/28 11:54:12;;;;;;;6.13;4.30;;;9.20;99.90;;;;;;6115077;23;20002;-84
2022/09/28 11:56:44;;;;;;;7.38;2.85;;;9.20;99.90;;;;;;6118289;23;20017;-84
2022/09/28 11:59:22;;;;;;;3.88;3.22;;;9.20;99.90;;;;;;6117116;23;19998;-84
2022/09/28 12:02:03;;;;;;;3.63;2.58;;;9.30;99.90;;;;;;6117859;23;20021;-85
2022/09/28 12:04:40;;;;;;;5.68;2.80;;;9.30;99.90;;;;;;6117630;23;20010;-85
2022/09/28 12:07:17;;;;;;;5.18;2.67;;;9.40;99.90;;;;;;6112145;23;20006;-84
2022/09/28 12:10:31;;;;;;;10.10;4.10;;;9.40;99.90;;;;;;6112671;23;20100;-84
2022/09/28 12:13:02;;;;;;;7.90;3.30;;;9.40;99.90;;;;;;6108021;23;20004;-84
2022/09/28 12:15:40;;;;;;;3.30;2.53;;;9.40;99.90;;;;;;6117321;23;20010;-84
2022/09/28 12:18:19;;;;;;;5.07;2.85;;;9.40;99.90;;;;;;6115876;23;20347;-83
2022/09/28 12:20:50;;;;;;;6.55;3.17;;;9.30;99.90;;;;;;6119126;23;20048;-84
2022/09/28 12:23:32;;;;;;;5.28;2.75;;;9.40;99.90;;;;;;6116446;23;20002;-84
2022/09/28 12:26:01;;;;;;;7.15;2.88;;;9.40;99.90;;;;;;6116266;23;20006;-84
2022/09/28 12:28:42;;;;;;;11.50;3.88;;;9.40;99.90;;;;;;6109275;23;20010;-83
2022/09/28 12:31:26;;;;;;;5.68;2.42;;;9.50;99.90;;;;;;6113090;23;20350;-83
2022/09/28 12:33:52;;;;;;;3.55;2.88;;;9.40;99.90;;;;;;6113581;23;20006;-84
2022/09/28 12:36:29;;;;;;;4.10;2.75;;;9.50;99.90;;;;;;6114309;23;20002;-84
2022/09/28 12:39:03;;;;;;;5.70;2.83;;;9.40;99.90;;;;;;6115967;23;20416;-83
2022/09/28 12:41:38;;;;;;;5.68;2.60;;;9.50;99.90;;;;;;6118336;23;20014;-84
2022/09/28 12:44:28;;;;;;;4.82;2.55;;;9.50;99.90;;;;;;6117328;23;20164;-84
2022/09/28 12:47:22;;;;;;;4.30;3.35;;;9.50;99.90;;;;;;6118419;23;20427;-82
2022/09/28 12:50:28;;;;;;;2.58;2.33;;;9.50;99.90;;;;;;6118966;23;20002;-83
2022/09/28 12:53:24;;;;;;;2.97;2.50;;;9.50;99.90;;;;;;6092983;23;20064;-83
2022/09/28 12:56:03;;;;;;;3.50;2.67;;;9.40;99.90;;;;;;6118824;23;20055;-83
2022/09/28 12:58:35;;;;;;;3.47;2.60;;;9.40;99.90;;;;;;6117574;23;20010;-83
2022/09/28 13:01:39;;;;;;;3.85;2.75;;;9.40;99.90;;;;;;6118338;23;20344;-84
2022/09/28 13:04:30;;;;;;;2.58;2.38;;;9.40;99.90;;;;;;6118674;23;20064;-84
2022/09/28 13:07:14;;;;;;;2.55;2.33;;;9.30;99.90;;;;;;6119077;23;20012;-83
2022/09/28 13:09:48;;;;;;;2.28;1.88;;;9.40;99.90;;;;;;6118465;23;20008;-84
2022/09/28 13:12:23;;;;;;;3.17;2.28;;;9.30;99.90;;;;;;6117803;23;20010;-84
2022/09/28 13:14:50;;;;;;;2.22;2.03;;;9.40;99.90;;;;;;6117821;23;19998;-84
2022/09/28 13:17:38;;;;;;;3.45;2.20;;;9.40;99.90;;;;;;6116473;22;20071;-84
2022/09/28 13:20:24;;;;;;;2.10;1.90;;;9.60;99.90;;;;;;6118353;23;20431;-84
2022/09/28 13:23:28;;;;;;;4.63;2.78;;;9.60;99.90;;;;;;6116278;23;20090;-84
2022/09/28 13:26:16;;;;;;;2.70;2.22;;;9.60;99.90;;;;;;6096610;23;20104;-84
2022/09/28 13:28:44;;;;;;;2.15;2.00;;;9.80;99.90;;;;;;6117151;23;20447;-84
2022/09/28 13:31:22;;;;;;;2.85;1.98;;;9.80;99.90;;;;;;6117865;23;20002;-86
2022/09/28 13:33:49;;;;;;;6.65;1.98;;;9.80;99.90;;;;;;6118042;23;19998;-84
2022/09/28 13:36:26;;;;;;;3.17;2.17;;;9.90;99.90;;;;;;6118660;23;20010;-84
2022/09/28 13:38:58;;;;;;;3.28;2.03;;;9.90;99.90;;;;;;6117380;23;20017;-83